Terminal Aerodrome Forecast
Issued by NWS

Home | Current Version | Previous Version | Text Only | Print | Product List | Glossary On
Versions: 1 2 3 4 5 6 7 8 9 10 11 12 13
000
FTUS46 KSEW 050525
TAFCLM
TAF
KCLM 050525Z 0506/0606 VRB03KT P6SM FEW250
     FM051600 07008KT P6SM FEW250
     FM052000 04008KT P6SM FEW250
     FM060000 35006KT P6SM FEW250=

USA.gov is the U.S. government's official web portal to all federal, state and local government web resources and services.